createdAt,value
2023-01-10T00:00:16.554Z,17.94
2023-01-10T00:01:16.516Z,17.97
2023-01-10T00:02:16.589Z,17.95
2023-01-10T00:03:16.498Z,18.02
2023-01-10T00:04:16.527Z,17.91
2023-01-10T00:05:16.490Z,18.00
2023-01-10T00:06:16.461Z,17.95
2023-01-10T00:07:16.446Z,17.97
2023-01-10T00:08:16.440Z,17.97
2023-01-10T00:09:16.452Z,17.99
2023-01-10T00:10:16.415Z,18.02
2023-01-10T00:11:16.400Z,17.95
2023-01-10T00:12:16.389Z,17.95
2023-01-10T00:13:16.379Z,17.97
2023-01-10T00:14:16.375Z,17.91
2023-01-10T00:15:16.372Z,17.91
2023-01-10T00:16:16.381Z,17.99
2023-01-10T00:17:16.333Z,17.94
2023-01-10T00:18:16.323Z,17.91
2023-01-10T00:19:16.312Z,17.97
2023-01-10T00:20:16.322Z,17.97
2023-01-10T00:21:16.307Z,17.91
2023-01-10T00:22:16.277Z,17.82
2023-01-10T00:23:16.269Z,17.84
2023-01-10T00:24:16.254Z,17.91
2023-01-10T00:25:16.245Z,17.87
2023-01-10T00:26:16.271Z,17.85
2023-01-10T00:27:16.220Z,17.82
2023-01-10T00:28:16.211Z,17.85
2023-01-10T00:29:16.201Z,17.85
2023-01-10T00:30:16.186Z,17.92
2023-01-10T00:31:16.295Z,17.88
2023-01-10T00:32:16.187Z,17.88
2023-01-10T00:33:16.161Z,17.84
2023-01-10T00:34:16.144Z,17.88
2023-01-10T00:35:16.130Z,17.84
2023-01-10T00:36:16.120Z,17.88
2023-01-10T00:37:16.129Z,17.84
2023-01-10T00:38:16.123Z,17.79
2023-01-10T00:39:16.091Z,17.82
2023-01-10T00:40:16.085Z,17.82
2023-01-10T00:41:16.064Z,17.79
2023-01-10T00:42:16.076Z,17.78
2023-01-10T00:43:16.042Z,17.84
2023-01-10T00:44:16.051Z,17.81
2023-01-10T00:45:16.019Z,17.78
2023-01-10T00:46:16.105Z,17.84
2023-01-10T00:47:15.995Z,17.85
2023-01-10T00:48:15.985Z,17.81
2023-01-10T00:49:15.974Z,17.82
2023-01-10T00:50:15.968Z,17.78
2023-01-10T00:51:15.961Z,17.85
2023-01-10T00:52:15.942Z,17.79
2023-01-10T00:53:15.955Z,17.78
2023-01-10T00:54:15.923Z,17.85
2023-01-10T00:55:15.918Z,17.87
2023-01-10T00:56:15.904Z,17.79
2023-01-10T00:57:15.885Z,17.85
2023-01-10T00:58:15.873Z,17.81
2023-01-10T00:59:15.861Z,17.78
2023-01-10T01:00:15.851Z,17.78
2023-01-10T01:01:15.955Z,17.78
2023-01-10T01:02:16.012Z,17.81
2023-01-10T01:03:15.820Z,17.82
2023-01-10T01:04:15.806Z,17.84
2023-01-10T01:05:15.816Z,17.82
2023-01-10T01:06:15.785Z,17.85
2023-01-10T01:07:15.776Z,17.85
2023-01-10T01:08:15.791Z,17.89
2023-01-10T01:09:15.779Z,17.82
2023-01-10T01:10:15.736Z,17.85
2023-01-10T01:11:15.729Z,17.88
2023-01-10T01:12:15.716Z,17.87
2023-01-10T01:13:15.706Z,17.91
2023-01-10T01:14:15.710Z,17.99
2023-01-10T01:15:15.687Z,17.91
2023-01-10T01:16:15.716Z,17.95
2023-01-10T01:17:15.660Z,17.94
2023-01-10T01:18:15.653Z,17.95
2023-01-10T01:19:15.637Z,17.95
2023-01-10T01:20:15.631Z,17.95
2023-01-10T01:21:15.615Z,18.02
2023-01-10T01:22:15.607Z,18.02
2023-01-10T01:23:15.591Z,18.02
2023-01-10T01:24:15.581Z,18.02
2023-01-10T01:25:15.585Z,18.02
2023-01-10T01:26:15.566Z,18.06
2023-01-10T01:27:15.561Z,17.99
2023-01-10T01:28:15.538Z,18.02
2023-01-10T01:29:17.338Z,17.94
2023-01-10T01:30:15.513Z,18.00
2023-01-10T01:31:15.620Z,18.00
2023-01-10T01:32:15.509Z,17.99
2023-01-10T01:33:15.486Z,17.99
2023-01-10T01:34:15.468Z,18.06
2023-01-10T01:35:15.458Z,18.00
2023-01-10T01:36:15.449Z,18.03
2023-01-10T01:37:15.437Z,18.13
2023-01-10T01:38:15.465Z,18.12
2023-01-10T01:39:15.427Z,18.07
2023-01-10T01:40:15.412Z,18.13
2023-01-10T01:41:15.423Z,18.15
2023-01-10T01:42:15.400Z,18.07
2023-01-10T01:43:15.376Z,18.10
2023-01-10T01:44:15.380Z,18.12
2023-01-10T01:45:15.345Z,18.15
2023-01-10T01:46:15.364Z,18.09
2023-01-10T01:47:15.323Z,18.09
2023-01-10T01:48:15.321Z,18.10
2023-01-10T01:49:15.303Z,18.09
2023-01-10T01:50:15.299Z,18.21
2023-01-10T01:51:15.276Z,18.18
2023-01-10T01:52:15.266Z,18.15
2023-01-10T01:53:15.258Z,18.21
2023-01-10T01:54:15.243Z,18.17
2023-01-10T01:55:15.235Z,18.13
2023-01-10T01:56:15.227Z,18.19
2023-01-10T01:57:15.227Z,18.22
2023-01-10T01:58:15.206Z,18.27
2023-01-10T01:59:15.187Z,18.31
2023-01-10T02:00:15.202Z,18.17
2023-01-10T02:01:15.328Z,18.18
2023-01-10T02:02:15.262Z,18.27
2023-01-10T02:03:15.223Z,18.19
2023-01-10T02:04:15.191Z,18.27
2023-01-10T02:05:15.136Z,18.27
2023-01-10T02:06:15.117Z,18.33
2023-01-10T02:07:15.098Z,18.27
2023-01-10T02:08:15.121Z,18.25
2023-01-10T02:09:15.076Z,18.29
2023-01-10T02:10:15.066Z,18.29
2023-01-10T02:11:15.051Z,18.28
2023-01-10T02:12:15.047Z,18.28
2023-01-10T02:13:15.049Z,18.29
2023-01-10T02:14:15.035Z,18.25
2023-01-10T02:15:15.008Z,18.27
2023-01-10T02:16:15.024Z,18.28
2023-01-10T02:17:14.985Z,18.25
2023-01-10T02:18:14.976Z,18.24
2023-01-10T02:19:14.964Z,18.25
2023-01-10T02:20:14.957Z,18.27
2023-01-10T02:21:14.952Z,18.22
2023-01-10T02:22:14.929Z,18.33
2023-01-10T02:23:14.932Z,18.25
2023-01-10T02:24:14.906Z,18.39
2023-01-10T02:25:14.899Z,18.31
2023-01-10T02:26:14.900Z,18.37
2023-01-10T02:27:14.871Z,18.22
2023-01-10T02:28:14.861Z,18.25
2023-01-10T02:29:14.868Z,18.28
2023-01-10T02:30:14.839Z,18.25
2023-01-10T02:31:14.940Z,18.31
2023-01-10T02:32:14.821Z,18.27
2023-01-10T02:33:14.804Z,18.39
2023-01-10T02:34:14.797Z,18.31
2023-01-10T02:35:14.792Z,18.28
2023-01-10T02:36:14.770Z,18.29
2023-01-10T02:37:14.765Z,18.36
2023-01-10T02:38:14.754Z,18.29
2023-01-10T02:39:14.742Z,18.24
2023-01-10T02:40:14.725Z,18.28
2023-01-10T02:41:14.722Z,18.36
2023-01-10T02:42:14.740Z,18.25
2023-01-10T02:43:14.703Z,18.25
2023-01-10T02:44:17.350Z,18.33
2023-01-10T02:45:14.697Z,18.33
2023-01-10T02:46:14.713Z,18.24
2023-01-10T02:47:14.649Z,18.39
2023-01-10T02:48:14.637Z,18.36
2023-01-10T02:49:14.633Z,18.28
2023-01-10T02:50:14.629Z,18.36
2023-01-10T02:51:14.599Z,18.31
2023-01-10T02:52:14.598Z,18.31
2023-01-10T02:53:14.579Z,18.39
2023-01-10T02:54:14.569Z,18.33
2023-01-10T02:55:14.558Z,18.36
2023-01-10T02:56:14.566Z,18.31
2023-01-10T02:57:14.541Z,18.36
2023-01-10T02:58:14.537Z,18.29
2023-01-10T02:59:14.521Z,18.33
2023-01-10T03:00:14.514Z,18.34
2023-01-10T03:01:14.586Z,18.40
2023-01-10T03:02:14.571Z,18.34
2023-01-10T03:03:14.467Z,18.39
2023-01-10T03:04:14.462Z,18.40
2023-01-10T03:05:14.455Z,18.39
2023-01-10T03:06:14.434Z,18.33
2023-01-10T03:07:14.431Z,18.40
2023-01-10T03:08:14.430Z,18.39
2023-01-10T03:09:14.401Z,18.36
2023-01-10T03:10:14.389Z,18.34
2023-01-10T03:11:14.381Z,18.40
2023-01-10T03:12:14.373Z,18.40
2023-01-10T03:13:14.356Z,18.39
2023-01-10T03:14:14.355Z,18.42
2023-01-10T03:15:14.334Z,18.46
2023-01-10T03:16:14.396Z,18.43
2023-01-10T03:17:14.328Z,18.46
2023-01-10T03:18:14.305Z,18.44
2023-01-10T03:19:14.295Z,18.44
2023-01-10T03:20:14.291Z,18.44
2023-01-10T03:21:14.267Z,18.43
2023-01-10T03:22:14.255Z,18.42
2023-01-10T03:23:14.243Z,18.42
2023-01-10T03:24:14.239Z,18.43
2023-01-10T03:25:14.221Z,18.46
2023-01-10T03:26:14.233Z,18.46
2023-01-10T03:27:14.237Z,18.42
2023-01-10T03:28:14.217Z,18.46
2023-01-10T03:29:14.175Z,18.42
2023-01-10T03:30:14.189Z,18.43
2023-01-10T03:31:14.173Z,18.43
2023-01-10T03:32:14.202Z,18.43
2023-01-10T03:33:14.148Z,18.42
2023-01-10T03:34:14.122Z,18.46
2023-01-10T03:35:14.110Z,18.39
2023-01-10T03:36:14.098Z,18.46
2023-01-10T03:37:14.092Z,18.44
2023-01-10T03:38:14.083Z,18.46
2023-01-10T03:39:14.068Z,18.44
2023-01-10T03:40:14.068Z,18.44
2023-01-10T03:41:14.040Z,18.47
2023-01-10T03:42:14.044Z,18.49
2023-01-10T03:43:14.032Z,18.46
2023-01-10T03:44:14.022Z,18.47
2023-01-10T03:45:14.004Z,18.47
2023-01-10T03:46:14.037Z,18.39
2023-01-10T03:47:13.975Z,18.47
2023-01-10T03:48:13.962Z,18.44
2023-01-10T03:49:13.969Z,18.47
2023-01-10T03:50:14.009Z,18.42
2023-01-10T03:51:13.939Z,18.49
2023-01-10T03:52:13.922Z,18.43
2023-01-10T03:53:13.919Z,18.49
2023-01-10T03:54:13.896Z,18.50
2023-01-10T03:55:13.883Z,18.47
2023-01-10T03:56:13.892Z,18.49
2023-01-10T03:57:13.862Z,18.46
2023-01-10T03:58:13.851Z,18.49
2023-01-10T03:59:13.838Z,18.52
2023-01-10T04:00:13.836Z,18.46
2023-01-10T04:01:13.900Z,18.52
2023-01-10T04:02:13.836Z,18.52
2023-01-10T04:03:13.796Z,18.46
2023-01-10T04:04:13.859Z,18.49
2023-01-10T04:05:13.792Z,18.43
2023-01-10T04:06:13.768Z,18.50
2023-01-10T04:07:13.750Z,18.50
2023-01-10T04:08:13.761Z,18.46
2023-01-10T04:09:13.731Z,18.49
2023-01-10T04:10:13.721Z,18.43
2023-01-10T04:11:13.704Z,18.52
2023-01-10T04:12:13.699Z,18.47
2023-01-10T04:13:13.683Z,18.49
2023-01-10T04:14:13.677Z,18.46
2023-01-10T04:15:13.659Z,18.54
2023-01-10T04:16:13.657Z,18.54
2023-01-10T04:17:13.637Z,18.52
2023-01-10T04:18:13.626Z,18.54
2023-01-10T04:19:13.620Z,18.46
2023-01-10T04:20:13.621Z,18.52
2023-01-10T04:21:13.612Z,18.50
2023-01-10T04:22:13.583Z,18.55
2023-01-10T04:23:13.569Z,18.52
2023-01-10T04:24:13.565Z,18.55
2023-01-10T04:25:13.546Z,18.50
2023-01-10T04:26:13.549Z,18.49
2023-01-10T04:27:13.535Z,18.54
2023-01-10T04:28:13.513Z,18.47
2023-01-10T04:29:13.501Z,18.52
2023-01-10T04:30:13.500Z,18.47
2023-01-10T04:31:13.493Z,18.55
2023-01-10T04:32:13.514Z,18.50
2023-01-10T04:33:13.457Z,18.47
2023-01-10T04:34:13.446Z,18.49
2023-01-10T04:35:13.437Z,18.47
2023-01-10T04:36:13.424Z,18.52
2023-01-10T04:37:13.434Z,18.54
2023-01-10T04:38:13.406Z,18.47
2023-01-10T04:39:13.396Z,18.52
2023-01-10T04:40:13.378Z,18.52
2023-01-10T04:41:13.375Z,18.49
2023-01-10T04:42:13.360Z,18.47
2023-01-10T04:43:13.344Z,18.50
2023-01-10T04:44:13.361Z,18.50
2023-01-10T04:45:13.320Z,18.49
2023-01-10T04:46:13.315Z,18.52
2023-01-10T04:47:13.299Z,18.54
2023-01-10T04:48:13.287Z,18.46
2023-01-10T04:49:13.287Z,18.44
2023-01-10T04:50:13.292Z,18.47
2023-01-10T04:51:13.259Z,18.46
2023-01-10T04:52:13.247Z,18.44
2023-01-10T04:53:13.272Z,18.47
2023-01-10T04:54:13.220Z,18.46
2023-01-10T04:55:13.210Z,18.47
2023-01-10T04:56:13.204Z,18.55
2023-01-10T04:57:13.195Z,18.43
2023-01-10T04:58:13.179Z,18.44
2023-01-10T04:59:13.163Z,18.49
2023-01-10T05:00:13.151Z,18.46
2023-01-10T05:01:13.266Z,18.46
2023-01-10T05:02:13.236Z,18.46
2023-01-10T05:03:13.173Z,18.55
2023-01-10T05:04:13.107Z,18.49
2023-01-10T05:05:13.096Z,18.44
2023-01-10T05:06:13.087Z,18.50
2023-01-10T05:07:13.074Z,18.46
2023-01-10T05:08:13.068Z,18.47
2023-01-10T05:09:13.068Z,18.50
2023-01-10T05:10:13.040Z,18.52
2023-01-10T05:11:13.049Z,18.50
2023-01-10T05:12:13.018Z,18.50
2023-01-10T05:13:13.006Z,18.47
2023-01-10T05:14:13.034Z,18.55
2023-01-10T05:15:12.986Z,18.50
2023-01-10T05:16:13.040Z,18.44
2023-01-10T05:17:12.970Z,18.54
2023-01-10T05:18:12.950Z,18.50
2023-01-10T05:19:12.939Z,18.52
2023-01-10T05:20:12.933Z,18.55
2023-01-10T05:21:12.926Z,18.54
2023-01-10T05:22:12.905Z,18.49
2023-01-10T05:23:12.894Z,18.49
2023-01-10T05:24:12.880Z,18.44
2023-01-10T05:25:12.898Z,18.50
2023-01-10T05:26:12.882Z,18.49
2023-01-10T05:27:12.850Z,18.47
2023-01-10T05:28:12.836Z,18.44
2023-01-10T05:29:12.830Z,18.44
2023-01-10T05:30:12.821Z,18.43
2023-01-10T05:31:12.802Z,18.47
2023-01-10T05:32:12.798Z,18.46
2023-01-10T05:33:12.782Z,18.43
2023-01-10T05:34:12.797Z,18.40
2023-01-10T05:35:12.758Z,18.46
2023-01-10T05:36:12.747Z,18.44
2023-01-10T05:37:12.746Z,18.44
2023-01-10T05:38:12.734Z,18.46
2023-01-10T05:39:12.715Z,18.40
2023-01-10T05:40:12.705Z,18.49
2023-01-10T05:41:12.717Z,18.44
2023-01-10T05:42:12.680Z,18.49
2023-01-10T05:43:12.679Z,18.46
2023-01-10T05:44:14.742Z,18.50
2023-01-10T05:45:12.646Z,18.44
2023-01-10T05:46:12.684Z,18.47
2023-01-10T05:47:12.623Z,18.49
2023-01-10T05:48:12.612Z,18.44
2023-01-10T05:49:12.611Z,18.52
2023-01-10T05:50:12.624Z,18.55
2023-01-10T05:51:12.580Z,18.50
2023-01-10T05:52:12.572Z,18.52
2023-01-10T05:53:12.557Z,18.50
2023-01-10T05:54:12.545Z,18.49
2023-01-10T05:55:12.534Z,18.54
2023-01-10T05:56:12.545Z,18.54
2023-01-10T05:57:12.534Z,18.43
2023-01-10T05:58:12.500Z,18.50
2023-01-10T05:59:27.228Z,18.52
2023-01-10T06:00:13.482Z,18.42
2023-01-10T06:01:12.517Z,18.50
2023-01-10T06:02:12.646Z,18.55
2023-01-10T06:03:12.500Z,18.44
2023-01-10T06:04:12.433Z,18.46
2023-01-10T06:05:12.426Z,18.47
2023-01-10T06:06:12.409Z,18.46
2023-01-10T06:07:12.409Z,18.49
2023-01-10T06:08:12.397Z,18.50
2023-01-10T06:09:12.377Z,18.52
2023-01-10T06:10:12.367Z,18.52
2023-01-10T06:11:12.354Z,18.58
2023-01-10T06:12:12.351Z,18.50
2023-01-10T06:13:12.426Z,18.57
2023-01-10T06:14:12.333Z,18.54
2023-01-10T06:15:12.313Z,18.47
2023-01-10T06:16:12.397Z,18.50
2023-01-10T06:17:12.288Z,18.55
2023-01-10T06:18:12.709Z,18.50
2023-01-10T06:19:12.265Z,18.58
2023-01-10T06:20:12.424Z,18.57
2023-01-10T06:21:12.243Z,18.58
2023-01-10T06:22:12.233Z,18.59
2023-01-10T06:23:12.233Z,18.64
2023-01-10T06:24:12.217Z,18.57
2023-01-10T06:25:12.201Z,18.54
2023-01-10T06:26:12.228Z,18.57
2023-01-10T06:27:12.175Z,18.64
2023-01-10T06:28:12.168Z,18.61
2023-01-10T06:29:12.173Z,18.57
2023-01-10T06:30:12.141Z,18.57
2023-01-10T06:31:12.205Z,18.57
2023-01-10T06:32:12.152Z,18.61
2023-01-10T06:33:12.218Z,18.55
2023-01-10T06:34:12.097Z,18.62
2023-01-10T06:35:12.085Z,18.61
2023-01-10T06:36:12.077Z,18.52
2023-01-10T06:37:12.086Z,18.58
2023-01-10T06:38:12.086Z,18.67
2023-01-10T06:39:12.041Z,18.62
2023-01-10T06:40:12.035Z,18.62
2023-01-10T06:41:12.017Z,18.62
2023-01-10T06:42:12.013Z,18.59
2023-01-10T06:43:11.996Z,18.59
2023-01-10T06:44:12.000Z,18.64
2023-01-10T06:45:11.998Z,18.62
2023-01-10T06:46:11.995Z,18.61
2023-01-10T06:47:11.954Z,18.65
2023-01-10T06:48:11.943Z,18.64
2023-01-10T06:49:11.927Z,18.65
2023-01-10T06:50:11.928Z,18.61
2023-01-10T06:51:11.911Z,18.61
2023-01-10T06:52:11.897Z,18.64
2023-01-10T06:53:11.893Z,18.64
2023-01-10T06:54:11.873Z,18.59
2023-01-10T06:55:11.867Z,18.61
2023-01-10T06:56:11.854Z,18.65
2023-01-10T06:57:11.849Z,18.62
2023-01-10T06:58:11.829Z,18.67
2023-01-10T06:59:11.820Z,18.73
2023-01-10T07:00:11.806Z,18.64
2023-01-10T07:01:11.921Z,18.65
2023-01-10T07:02:11.854Z,18.73
2023-01-10T07:03:11.773Z,18.73
2023-01-10T07:04:11.823Z,18.62
2023-01-10T07:05:11.761Z,18.74
2023-01-10T07:06:11.740Z,18.68
2023-01-10T07:07:11.726Z,18.70
2023-01-10T07:08:11.726Z,18.74
2023-01-10T07:09:11.711Z,18.73
2023-01-10T07:10:11.695Z,18.73
2023-01-10T07:11:11.679Z,18.74
2023-01-10T07:12:11.672Z,18.67
2023-01-10T07:13:11.659Z,18.70
2023-01-10T07:14:11.653Z,18.73
2023-01-10T07:15:11.665Z,18.70
2023-01-10T07:16:11.839Z,18.67
2023-01-10T07:17:11.645Z,18.70
2023-01-10T07:18:12.855Z,18.72
2023-01-10T07:19:11.591Z,18.72
2023-01-10T07:20:11.605Z,18.70
2023-01-10T07:21:11.579Z,18.67
2023-01-10T07:22:11.560Z,18.72
2023-01-10T07:23:11.546Z,18.72
2023-01-10T07:24:11.532Z,18.70
2023-01-10T07:25:11.528Z,18.64
2023-01-10T07:26:11.534Z,18.73
2023-01-10T07:27:11.506Z,18.72
2023-01-10T07:28:11.491Z,18.80
2023-01-10T07:29:11.481Z,18.70
2023-01-10T07:30:11.467Z,18.72
2023-01-10T07:31:11.485Z,18.73
2023-01-10T07:32:11.454Z,18.70
2023-01-10T07:33:11.470Z,18.68
2023-01-10T07:34:11.423Z,18.73
2023-01-10T07:35:11.420Z,18.74
2023-01-10T07:36:11.401Z,18.79
2023-01-10T07:37:11.392Z,18.70
2023-01-10T07:38:11.388Z,18.73
2023-01-10T07:39:11.374Z,18.74
2023-01-10T07:40:11.365Z,18.79
2023-01-10T07:41:11.345Z,18.76
2023-01-10T07:42:11.335Z,18.76
2023-01-10T07:43:11.325Z,18.80
2023-01-10T07:44:11.318Z,18.72
2023-01-10T07:45:11.311Z,18.80
2023-01-10T07:46:11.362Z,18.80
2023-01-10T07:47:11.278Z,18.79
2023-01-10T07:48:11.269Z,18.86
2023-01-10T07:49:11.272Z,18.83
2023-01-10T07:50:11.252Z,18.82
2023-01-10T07:51:11.231Z,18.91
2023-01-10T07:52:11.232Z,18.87
2023-01-10T07:53:11.216Z,18.87
2023-01-10T07:54:13.014Z,18.92
2023-01-10T07:55:11.189Z,18.97
2023-01-10T07:56:11.190Z,18.91
2023-01-10T07:57:11.165Z,18.97
2023-01-10T07:58:11.155Z,18.98
2023-01-10T07:59:11.143Z,18.91
2023-01-10T08:00:11.146Z,19.01
2023-01-10T08:01:11.200Z,18.94
2023-01-10T08:02:11.282Z,19.01
2023-01-10T08:03:11.288Z,18.99
2023-01-10T08:04:11.092Z,18.94
2023-01-10T08:05:11.106Z,19.01
2023-01-10T08:06:11.098Z,18.99
2023-01-10T08:07:11.073Z,19.01
2023-01-10T08:08:11.051Z,19.06
2023-01-10T08:09:11.031Z,19.10
2023-01-10T08:10:11.022Z,19.05
2023-01-10T08:11:11.009Z,19.06
2023-01-10T08:12:10.998Z,19.02
2023-01-10T08:13:18.750Z,19.06
2023-01-10T08:14:12.064Z,19.05
2023-01-10T08:15:10.965Z,19.08
2023-01-10T08:16:11.013Z,19.10
2023-01-10T08:17:10.943Z,19.17
2023-01-10T08:18:10.960Z,19.18
2023-01-10T08:19:10.953Z,19.18
2023-01-10T08:20:10.916Z,19.20
2023-01-10T08:21:10.938Z,19.23
2023-01-10T08:22:10.888Z,19.06
2023-01-10T08:23:10.879Z,19.10
2023-01-10T08:24:10.867Z,19.24
2023-01-10T08:25:10.852Z,19.14
2023-01-10T08:26:10.861Z,19.15
2023-01-10T08:27:10.833Z,19.20
2023-01-10T08:28:10.820Z,19.31
2023-01-10T08:29:10.811Z,19.23
2023-01-10T08:30:10.803Z,19.25
2023-01-10T08:31:10.827Z,19.29
2023-01-10T08:32:10.788Z,19.18
2023-01-10T08:33:10.766Z,19.28
2023-01-10T08:34:10.756Z,19.25
2023-01-10T08:35:10.743Z,19.24
2023-01-10T08:36:10.734Z,19.21
2023-01-10T08:37:10.737Z,19.23
2023-01-10T08:38:10.722Z,19.21
2023-01-10T08:39:10.694Z,19.21
2023-01-10T08:40:10.700Z,19.28
2023-01-10T08:41:10.672Z,19.28
2023-01-10T08:42:10.662Z,19.31
2023-01-10T08:43:10.652Z,19.29
2023-01-10T08:44:10.645Z,19.29
2023-01-10T08:45:10.630Z,19.28
2023-01-10T08:46:10.692Z,19.33
2023-01-10T08:47:10.607Z,19.29
2023-01-10T08:48:10.609Z,19.40
2023-01-10T08:49:10.587Z,19.35
2023-01-10T08:50:10.581Z,19.36
2023-01-10T08:51:10.562Z,19.38
2023-01-10T08:52:10.550Z,19.47
2023-01-10T08:53:10.557Z,19.38
2023-01-10T08:54:10.527Z,19.51
2023-01-10T08:55:10.515Z,19.43
2023-01-10T08:56:10.525Z,19.42
2023-01-10T08:57:10.493Z,19.43
2023-01-10T08:58:10.482Z,19.46
2023-01-10T08:59:10.477Z,19.43
2023-01-10T09:00:10.459Z,19.42
2023-01-10T09:01:10.491Z,19.42
2023-01-10T09:02:10.486Z,19.43
2023-01-10T09:03:10.522Z,19.50
2023-01-10T09:04:10.415Z,19.48
2023-01-10T09:05:22.235Z,19.51
2023-01-10T09:06:11.393Z,19.48
2023-01-10T09:07:10.382Z,19.53
2023-01-10T09:08:10.381Z,19.53
2023-01-10T09:09:10.393Z,19.55
2023-01-10T09:10:10.352Z,19.39
2023-01-10T09:11:10.343Z,19.53
2023-01-10T09:12:10.326Z,19.54
2023-01-10T09:13:10.314Z,19.48
2023-01-10T09:14:10.318Z,19.54
2023-01-10T09:15:10.411Z,19.51
2023-01-10T09:16:10.316Z,19.51
2023-01-10T09:17:10.269Z,19.58
2023-01-10T09:18:10.271Z,19.47
2023-01-10T09:19:10.250Z,19.65
2023-01-10T09:20:10.272Z,19.51
2023-01-10T09:21:10.229Z,19.53
2023-01-10T09:22:10.213Z,19.63
2023-01-10T09:23:10.202Z,19.55
2023-01-10T09:24:10.198Z,19.61
2023-01-10T09:25:10.205Z,19.65
2023-01-10T09:26:10.187Z,19.60
2023-01-10T09:27:10.158Z,19.68
2023-01-10T09:28:10.164Z,19.60
2023-01-10T09:29:10.143Z,19.68
2023-01-10T09:30:10.124Z,19.70
2023-01-10T09:31:10.137Z,19.60
2023-01-10T09:32:10.108Z,19.60
2023-01-10T09:33:10.089Z,19.66
2023-01-10T09:34:10.082Z,19.63
2023-01-10T09:35:10.067Z,19.61
2023-01-10T09:36:10.359Z,19.65
2023-01-10T09:37:10.044Z,19.69
2023-01-10T09:38:10.047Z,19.68
2023-01-10T09:39:10.024Z,19.63
2023-01-10T09:40:10.011Z,19.58
2023-01-10T09:41:10.028Z,19.63
2023-01-10T09:42:09.989Z,19.72
2023-01-10T09:43:09.977Z,19.63
2023-01-10T09:44:09.981Z,19.68
2023-01-10T09:45:09.955Z,19.73
2023-01-10T09:46:10.013Z,19.73
2023-01-10T09:47:21.523Z,19.83
2023-01-10T09:48:10.921Z,19.83
2023-01-10T09:49:09.909Z,19.73
2023-01-10T09:50:09.910Z,19.76
2023-01-10T09:51:09.903Z,19.83
2023-01-10T09:52:09.876Z,19.87
2023-01-10T09:53:09.872Z,19.80
2023-01-10T09:54:12.693Z,19.91
2023-01-10T09:55:09.843Z,19.86
2023-01-10T09:56:09.847Z,19.80
2023-01-10T09:57:09.843Z,19.83
2023-01-10T09:58:09.812Z,19.84
2023-01-10T09:59:09.798Z,19.95
2023-01-10T10:00:09.793Z,19.88
2023-01-10T10:01:09.790Z,19.86
2023-01-10T10:02:09.782Z,19.91
2023-01-10T10:03:09.764Z,19.86
2023-01-10T10:04:09.827Z,19.86
2023-01-10T10:05:09.729Z,19.95
2023-01-10T10:06:12.265Z,19.93
2023-01-10T10:07:09.714Z,19.87
2023-01-10T10:08:09.703Z,19.88
2023-01-10T10:09:09.687Z,19.93
2023-01-10T10:10:09.685Z,19.90
2023-01-10T10:11:09.664Z,19.91
2023-01-10T10:12:09.658Z,19.94
2023-01-10T10:13:14.028Z,19.88
2023-01-10T10:14:10.633Z,19.94
2023-01-10T10:15:09.618Z,19.95
2023-01-10T10:16:09.652Z,19.94
2023-01-10T10:17:09.598Z,19.97
2023-01-10T10:18:09.584Z,19.98
2023-01-10T10:19:09.574Z,20.03
2023-01-10T10:20:09.569Z,20.09
2023-01-10T10:21:09.561Z,20.06
2023-01-10T10:22:09.557Z,20.10
2023-01-10T10:23:09.530Z,20.09
2023-01-10T10:24:09.522Z,20.09
2023-01-10T10:25:09.509Z,20.06
2023-01-10T10:26:09.518Z,20.13
2023-01-10T10:27:09.492Z,20.12
2023-01-10T10:28:09.471Z,20.06
2023-01-10T10:29:09.515Z,20.09
2023-01-10T10:30:09.465Z,20.12
2023-01-10T10:31:09.457Z,20.03
2023-01-10T10:32:09.434Z,20.10
2023-01-10T10:33:09.415Z,20.12
2023-01-10T10:34:09.403Z,20.12
2023-01-10T10:35:09.394Z,20.15
2023-01-10T10:36:09.383Z,20.08
2023-01-10T10:37:09.371Z,20.12
2023-01-10T10:38:09.363Z,20.06
2023-01-10T10:39:09.349Z,20.13
2023-01-10T10:40:09.339Z,20.09
2023-01-10T10:41:09.326Z,20.12
2023-01-10T10:42:09.316Z,20.18
2023-01-10T10:43:09.303Z,20.13
2023-01-10T10:44:09.313Z,20.10
2023-01-10T10:45:09.305Z,20.10
2023-01-10T10:46:09.314Z,20.05
2023-01-10T10:47:09.259Z,20.13
2023-01-10T10:48:09.248Z,20.12
2023-01-10T10:49:09.234Z,20.10
2023-01-10T10:50:09.229Z,20.12
2023-01-10T10:51:09.219Z,20.10
2023-01-10T10:52:09.217Z,20.16
2023-01-10T10:53:09.194Z,20.09
2023-01-10T10:54:09.179Z,20.10
2023-01-10T10:55:09.172Z,20.08
2023-01-10T10:56:09.162Z,20.12
2023-01-10T10:57:09.154Z,20.09
2023-01-10T10:58:09.134Z,20.09
2023-01-10T10:59:09.122Z,20.05
2023-01-10T11:00:09.117Z,20.02
2023-01-10T11:01:09.188Z,20.09
2023-01-10T11:02:09.169Z,20.02
2023-01-10T11:03:09.078Z,20.02
2023-01-10T11:04:09.067Z,20.09
2023-01-10T11:05:09.086Z,20.05
2023-01-10T11:06:09.078Z,20.05
2023-01-10T11:07:09.037Z,20.09
2023-01-10T11:08:09.031Z,20.08
2023-01-10T11:09:09.051Z,20.06
2023-01-10T11:10:09.000Z,20.08
2023-01-10T11:11:08.989Z,20.06
2023-01-10T11:12:08.977Z,20.08
2023-01-10T11:13:08.967Z,20.09
2023-01-10T11:14:08.984Z,20.12
2023-01-10T11:15:08.942Z,20.10
2023-01-10T11:16:09.027Z,20.10
2023-01-10T11:17:08.955Z,20.06
2023-01-10T11:18:08.918Z,20.05
2023-01-10T11:19:08.903Z,20.16
2023-01-10T11:20:08.895Z,20.06
2023-01-10T11:21:08.878Z,20.09
2023-01-10T11:22:08.865Z,20.12
2023-01-10T11:23:08.858Z,20.13
2023-01-10T11:24:08.840Z,20.20
2023-01-10T11:25:08.835Z,20.16
2023-01-10T11:26:08.825Z,20.21
2023-01-10T11:27:08.810Z,20.39
2023-01-10T11:28:11.097Z,20.42
2023-01-10T11:29:08.797Z,20.59
2023-01-10T11:30:08.803Z,20.53
2023-01-10T11:31:08.764Z,20.49
2023-01-10T11:32:08.797Z,20.50
2023-01-10T11:33:08.762Z,20.49
2023-01-10T11:34:08.728Z,20.53
2023-01-10T11:35:08.726Z,20.56
2023-01-10T11:36:08.713Z,20.56
2023-01-10T11:37:08.698Z,20.66
2023-01-10T11:38:08.696Z,20.68
2023-01-10T11:39:08.674Z,20.77
2023-01-10T11:40:08.666Z,20.93
2023-01-10T11:41:08.652Z,21.01
2023-01-10T11:42:08.644Z,21.11
2023-01-10T11:43:08.628Z,21.13
2023-01-10T11:44:08.624Z,21.11
2023-01-10T11:45:08.606Z,21.27
2023-01-10T11:46:08.701Z,21.44
2023-01-10T11:47:08.584Z,21.44
2023-01-10T11:48:08.580Z,21.42
2023-01-10T11:49:09.051Z,21.32
2023-01-10T11:50:08.558Z,21.41
2023-01-10T11:51:08.542Z,21.50
2023-01-10T11:52:08.528Z,21.63
2023-01-10T11:53:08.522Z,21.56
2023-01-10T11:54:08.511Z,21.46
2023-01-10T11:55:08.497Z,21.41
2023-01-10T11:56:08.489Z,21.45
2023-01-10T11:57:08.479Z,21.35
2023-01-10T11:58:08.470Z,21.36
2023-01-10T11:59:08.451Z,21.32
2023-01-10T12:00:08.453Z,21.35
2023-01-10T12:01:08.537Z,21.29
2023-01-10T12:02:08.422Z,21.32
2023-01-10T12:03:08.409Z,21.29
2023-01-10T12:04:08.406Z,21.27
2023-01-10T12:05:08.429Z,21.24
2023-01-10T12:06:08.378Z,21.23
2023-01-10T12:07:09.414Z,21.32
2023-01-10T12:08:08.368Z,21.19
2023-01-10T12:09:08.343Z,21.26
2023-01-10T12:10:08.328Z,21.24
2023-01-10T12:11:08.318Z,21.24
2023-01-10T12:12:08.306Z,21.36
2023-01-10T12:13:08.295Z,21.16
2023-01-10T12:14:08.290Z,21.24
2023-01-10T12:15:08.272Z,21.23
2023-01-10T12:16:08.264Z,21.26
2023-01-10T12:17:08.313Z,21.29
2023-01-10T12:18:08.244Z,21.35
2023-01-10T12:19:08.227Z,21.51
2023-01-10T12:20:08.227Z,21.36
2023-01-10T12:21:08.225Z,21.53
2023-01-10T12:22:08.195Z,21.44
2023-01-10T12:23:08.184Z,21.41
2023-01-10T12:24:08.171Z,21.32
2023-01-10T12:25:08.160Z,21.36
2023-01-10T12:26:12.157Z,21.34
2023-01-10T12:27:08.140Z,21.41
2023-01-10T12:28:08.128Z,21.36
2023-01-10T12:29:08.116Z,21.34
2023-01-10T12:30:08.135Z,21.32
2023-01-10T12:31:08.179Z,21.42
2023-01-10T12:32:08.106Z,21.48
2023-01-10T12:33:08.076Z,21.66
2023-01-10T12:34:08.059Z,21.90
2023-01-10T12:35:08.052Z,22.04
2023-01-10T12:36:08.045Z,22.22
2023-01-10T12:37:08.050Z,22.27
2023-01-10T12:38:08.029Z,22.39
2023-01-10T12:39:10.015Z,22.34
2023-01-10T12:40:08.008Z,22.22
2023-01-10T12:41:07.986Z,22.13
2023-01-10T12:42:07.986Z,22.01
2023-01-10T12:43:07.975Z,21.92
2023-01-10T12:44:07.957Z,22.02
2023-01-10T12:45:07.945Z,21.97
2023-01-10T12:46:21.847Z,21.94
2023-01-10T12:47:12.115Z,21.88
2023-01-10T12:48:07.906Z,21.88
2023-01-10T12:49:07.896Z,21.83
2023-01-10T12:50:07.887Z,21.76
2023-01-10T12:51:07.870Z,21.78
2023-01-10T12:52:07.861Z,21.69